sensor_id;sensor_type;location;lat;lon;timestamp;temperature;humidity
13375;DHT22;6756;51.354;15.754;2022-11-20T00:02:43;-4.00;1.00
13375;DHT22;6756;51.354;15.754;2022-11-20T00:06:44;-4.00;1.00
13375;DHT22;6756;51.354;15.754;2022-11-20T00:10:44;-4.00;1.00
13375;DHT22;6756;51.354;15.754;2022-11-20T00:14:45;-4.10;1.00
13375;DHT22;6756;51.354;15.754;2022-11-20T00:18:46;-4.10;1.00
13375;DHT22;6756;51.354;15.754;2022-11-20T00:22:47;-4.20;1.00
13375;DHT22;6756;51.354;15.754;2022-11-20T00:26:48;-4.30;1.00
13375;DHT22;6756;51.354;15.754;2022-11-20T00:30:49;-4.40;26.40
13375;DHT22;6756;51.354;15.754;2022-11-20T00:34:50;-4.50;73.00
13375;DHT22;6756;51.354;15.754;2022-11-20T00:38:52;-4.60;99.90
13375;DHT22;6756;51.354;15.754;2022-11-20T00:42:53;-4.60;99.90
13375;DHT22;6756;51.354;15.754;2022-11-20T00:46:53;-4.60;99.90
13375;DHT22;6756;51.354;15.754;2022-11-20T00:50:55;-4.70;99.90
13375;DHT22;6756;51.354;15.754;2022-11-20T00:54:56;-4.80;99.90
13375;DHT22;6756;51.354;15.754;2022-11-20T00:59:00;-4.80;1.00
13375;DHT22;6756;51.354;15.754;2022-11-20T01:03:01;-4.90;1.00
13375;DHT22;6756;51.354;15.754;2022-11-20T01:07:02;-5.00;1.00
13375;DHT22;6756;51.354;15.754;2022-11-20T01:11:06;-4.90;99.90
13375;DHT22;6756;51.354;15.754;2022-11-20T01:15:07;-4.90;99.90
13375;DHT22;6756;51.354;15.754;2022-11-20T01:19:12;-5.00;99.90
13375;DHT22;6756;51.354;15.754;2022-11-20T01:23:13;-4.90;99.90
13375;DHT22;6756;51.354;15.754;2022-11-20T01:27:14;-4.90;1.00
13375;DHT22;6756;51.354;15.754;2022-11-20T01:35:22;-4.90;1.00
13375;DHT22;6756;51.354;15.754;2022-11-20T01:39:25;-4.90;1.00
13375;DHT22;6756;51.354;15.754;2022-11-20T01:43:26;-4.90;1.00
13375;DHT22;6756;51.354;15.754;2022-11-20T01:47:35;-4.90;99.90
13375;DHT22;6756;51.354;15.754;2022-11-20T01:51:59;-4.90;99.90
13375;DHT22;6756;51.354;15.754;2022-11-20T01:56:08;-4.90;54.70
13375;DHT22;6756;51.354;15.754;2022-11-20T02:00:12;-4.90;1.00
13375;DHT22;6756;51.354;15.754;2022-11-20T02:04:14;-5.00;46.70
13375;DHT22;6756;51.354;15.754;2022-11-20T02:08:16;-5.00;21.60
13375;DHT22;6756;51.354;15.754;2022-11-20T02:12:18;-5.10;1.00
13375;DHT22;6756;51.354;15.754;2022-11-20T02:16:40;-5.10;91.10
13375;DHT22;6756;51.354;15.754;2022-11-20T02:20:47;-5.20;79.70
13375;DHT22;6756;51.354;15.754;2022-11-20T02:24:48;-5.30;99.90
13375;DHT22;6756;51.354;15.754;2022-11-20T02:28:50;-5.30;99.90
13375;DHT22;6756;51.354;15.754;2022-11-20T02:32:51;-5.30;1.00
13375;DHT22;6756;51.354;15.754;2022-11-20T02:36:53;-5.40;1.00
13375;DHT22;6756;51.354;15.754;2022-11-20T02:40:54;-5.40;1.00
13375;DHT22;6756;51.354;15.754;2022-11-20T02:44:54;-5.40;99.90
13375;DHT22;6756;51.354;15.754;2022-11-20T02:48:55;-5.30;1.00
13375;DHT22;6756;51.354;15.754;2022-11-20T02:52:56;-5.30;99.90
13375;DHT22;6756;51.354;15.754;2022-11-20T02:56:57;-5.20;99.90
13375;DHT22;6756;51.354;15.754;2022-11-20T03:00:57;-5.10;99.90
13375;DHT22;6756;51.354;15.754;2022-11-20T03:04:58;-5.10;99.90
13375;DHT22;6756;51.354;15.754;2022-11-20T03:08:59;-5.10;99.90
13375;DHT22;6756;51.354;15.754;2022-11-20T03:13:00;-5.10;1.00
13375;DHT22;6756;51.354;15.754;2022-11-20T03:17:01;-5.10;1.00
13375;DHT22;6756;51.354;15.754;2022-11-20T03:21:01;-5.10;1.00
13375;DHT22;6756;51.354;15.754;2022-11-20T03:25:02;-5.10;1.00
13375;DHT22;6756;51.354;15.754;2022-11-20T03:29:04;-5.10;99.90
13375;DHT22;6756;51.354;15.754;2022-11-20T03:33:05;-5.10;99.90
13375;DHT22;6756;51.354;15.754;2022-11-20T03:37:06;-5.20;1.00
13375;DHT22;6756;51.354;15.754;2022-11-20T03:41:13;-5.20;1.00
13375;DHT22;6756;51.354;15.754;2022-11-20T03:45:16;-5.20;1.00
13375;DHT22;6756;51.354;15.754;2022-11-20T03:49:17;-5.10;1.00
13375;DHT22;6756;51.354;15.754;2022-11-20T03:53:19;-5.10;99.90
13375;DHT22;6756;51.354;15.754;2022-11-20T03:57:20;-5.20;99.90
13375;DHT22;6756;51.354;15.754;2022-11-20T04:01:23;-5.20;99.90
13375;DHT22;6756;51.354;15.754;2022-11-20T04:05:24;-5.30;99.90
13375;DHT22;6756;51.354;15.754;2022-11-20T04:09:25;-5.30;99.90
13375;DHT22;6756;51.354;15.754;2022-11-20T04:13:26;-5.30;1.00
13375;DHT22;6756;51.354;15.754;2022-11-20T04:17:26;-5.40;99.90
13375;DHT22;6756;51.354;15.754;2022-11-20T04:21:28;-5.40;99.90
13375;DHT22;6756;51.354;15.754;2022-11-20T04:25:29;-5.50;99.90
13375;DHT22;6756;51.354;15.754;2022-11-20T04:29:30;-5.50;1.00
13375;DHT22;6756;51.354;15.754;2022-11-20T04:33:31;-5.50;99.90
13375;DHT22;6756;51.354;15.754;2022-11-20T04:37:32;-5.50;99.90
13375;DHT22;6756;51.354;15.754;2022-11-20T04:41:35;-5.50;99.90
13375;DHT22;6756;51.354;15.754;2022-11-20T04:45:36;-5.50;99.90
13375;DHT22;6756;51.354;15.754;2022-11-20T04:49:37;-5.50;99.90
13375;DHT22;6756;51.354;15.754;2022-11-20T04:53:38;-5.50;99.90
13375;DHT22;6756;51.354;15.754;2022-11-20T04:57:39;-5.50;99.90
13375;DHT22;6756;51.354;15.754;2022-11-20T05:01:40;-5.50;1.00
13375;DHT22;6756;51.354;15.754;2022-11-20T05:05:41;-5.40;99.90
13375;DHT22;6756;51.354;15.754;2022-11-20T05:09:42;-5.40;99.90
13375;DHT22;6756;51.354;15.754;2022-11-20T05:13:43;-5.40;99.90
13375;DHT22;6756;51.354;15.754;2022-11-20T05:17:48;-5.40;9.60
13375;DHT22;6756;51.354;15.754;2022-11-20T05:21:49;-5.40;1.00
13375;DHT22;6756;51.354;15.754;2022-11-20T05:25:54;-5.40;99.90
13375;DHT22;6756;51.354;15.754;2022-11-20T05:29:55;-5.40;99.90
13375;DHT22;6756;51.354;15.754;2022-11-20T05:33:57;-5.30;99.90
13375;DHT22;6756;51.354;15.754;2022-11-20T05:37:58;-5.20;60.70
13375;DHT22;6756;51.354;15.754;2022-11-20T05:41:59;-5.20;1.00
13375;DHT22;6756;51.354;15.754;2022-11-20T05:46:19;-5.10;99.90
13375;DHT22;6756;51.354;15.754;2022-11-20T05:50:20;-5.10;1.00
13375;DHT22;6756;51.354;15.754;2022-11-20T05:54:21;-5.20;1.00
13375;DHT22;6756;51.354;15.754;2022-11-20T05:58:22;-5.30;1.00
13375;DHT22;6756;51.354;15.754;2022-11-20T06:02:23;-5.30;1.00
13375;DHT22;6756;51.354;15.754;2022-11-20T06:06:24;-5.40;1.00
13375;DHT22;6756;51.354;15.754;2022-11-20T06:10:26;-5.50;1.00
13375;DHT22;6756;51.354;15.754;2022-11-20T06:14:27;-5.50;1.00
13375;DHT22;6756;51.354;15.754;2022-11-20T06:18:29;-5.40;1.00
13375;DHT22;6756;51.354;15.754;2022-11-20T06:22:30;-5.30;1.00
13375;DHT22;6756;51.354;15.754;2022-11-20T06:26:31;-5.20;1.00
13375;DHT22;6756;51.354;15.754;2022-11-20T06:30:31;-5.20;99.90
13375;DHT22;6756;51.354;15.754;2022-11-20T06:34:32;-5.10;99.90
13375;DHT22;6756;51.354;15.754;2022-11-20T06:38:33;-5.00;99.90
13375;DHT22;6756;51.354;15.754;2022-11-20T06:42:34;-4.90;57.50
13375;DHT22;6756;51.354;15.754;2022-11-20T06:46:35;-4.80;1.00
13375;DHT22;6756;51.354;15.754;2022-11-20T06:50:38;-4.70;1.00
13375;DHT22;6756;51.354;15.754;2022-11-20T06:54:39;-4.70;99.90
13375;DHT22;6756;51.354;15.754;2022-11-20T06:58:40;-4.70;99.90
13375;DHT22;6756;51.354;15.754;2022-11-20T07:02:41;-4.70;99.90
13375;DHT22;6756;51.354;15.754;2022-11-20T07:06:42;-4.70;99.90
13375;DHT22;6756;51.354;15.754;2022-11-20T07:10:43;-4.70;99.90
13375;DHT22;6756;51.354;15.754;2022-11-20T07:14:43;-4.60;99.90
13375;DHT22;6756;51.354;15.754;2022-11-20T07:18:44;-4.50;99.90
13375;DHT22;6756;51.354;15.754;2022-11-20T07:22:45;-4.40;99.90
13375;DHT22;6756;51.354;15.754;2022-11-20T07:26:47;-4.30;99.90
13375;DHT22;6756;51.354;15.754;2022-11-20T07:30:51;-4.20;99.90
13375;DHT22;6756;51.354;15.754;2022-11-20T07:34:53;-4.00;71.60
13375;DHT22;6756;51.354;15.754;2022-11-20T07:38:53;-3.80;18.60
13375;DHT22;6756;51.354;15.754;2022-11-20T07:42:55;-3.60;1.00
13375;DHT22;6756;51.354;15.754;2022-11-20T07:46:56;-3.40;1.00
13375;DHT22;6756;51.354;15.754;2022-11-20T07:50:57;-3.20;1.00
13375;DHT22;6756;51.354;15.754;2022-11-20T07:54:58;-3.00;1.00
13375;DHT22;6756;51.354;15.754;2022-11-20T07:58:59;-2.80;1.00
13375;DHT22;6756;51.354;15.754;2022-11-20T08:03:03;-2.60;99.90
13375;DHT22;6756;51.354;15.754;2022-11-20T08:07:04;-2.40;99.90
13375;DHT22;6756;51.354;15.754;2022-11-20T08:11:05;-2.30;99.90
13375;DHT22;6756;51.354;15.754;2022-11-20T08:15:25;-2.10;99.90
13375;DHT22;6756;51.354;15.754;2022-11-20T08:19:25;-2.00;99.90
13375;DHT22;6756;51.354;15.754;2022-11-20T08:23:26;-1.80;99.90
13375;DHT22;6756;51.354;15.754;2022-11-20T08:27:27;-1.70;99.90
13375;DHT22;6756;51.354;15.754;2022-11-20T08:31:28;-1.60;99.90
13375;DHT22;6756;51.354;15.754;2022-11-20T08:35:35;-1.40;99.90
13375;DHT22;6756;51.354;15.754;2022-11-20T08:39:36;-1.30;99.90
13375;DHT22;6756;51.354;15.754;2022-11-20T08:43:37;-1.20;99.90
13375;DHT22;6756;51.354;15.754;2022-11-20T08:47:37;-1.20;99.90
13375;DHT22;6756;51.354;15.754;2022-11-20T08:51:38;-1.10;99.90
13375;DHT22;6756;51.354;15.754;2022-11-20T08:55:39;-0.90;99.90
13375;DHT22;6756;51.354;15.754;2022-11-20T08:59:40;-0.70;99.90
13375;DHT22;6756;51.354;15.754;2022-11-20T09:03:41;-0.60;99.90
13375;DHT22;6756;51.354;15.754;2022-11-20T09:07:42;-0.50;99.90
13375;DHT22;6756;51.354;15.754;2022-11-20T09:11:43;-0.40;99.90
13375;DHT22;6756;51.354;15.754;2022-11-20T09:15:44;-0.30;99.90
13375;DHT22;6756;51.354;15.754;2022-11-20T09:19:45;-0.20;99.90
13375;DHT22;6756;51.354;15.754;2022-11-20T09:23:45;-0.10;99.90
13375;DHT22;6756;51.354;15.754;2022-11-20T09:27:47;0.00;99.90
13375;DHT22;6756;51.354;15.754;2022-11-20T09:31:48;0.10;99.90
13375;DHT22;6756;51.354;15.754;2022-11-20T09:35:49;0.20;99.90
13375;DHT22;6756;51.354;15.754;2022-11-20T09:39:49;0.20;99.90
13375;DHT22;6756;51.354;15.754;2022-11-20T09:44:30;0.30;99.90
13375;DHT22;6756;51.354;15.754;2022-11-20T09:48:48;0.40;99.90
13375;DHT22;6756;51.354;15.754;2022-11-20T09:53:12;0.60;99.90
13375;DHT22;6756;51.354;15.754;2022-11-20T09:57:36;0.80;99.90
13375;DHT22;6756;51.354;15.754;2022-11-20T10:01:38;0.90;99.90
13375;DHT22;6756;51.354;15.754;2022-11-20T10:09:51;1.20;99.90
13375;DHT22;6756;51.354;15.754;2022-11-20T10:31:28;1.50;99.90
13375;DHT22;6756;51.354;15.754;2022-11-20T10:44:15;1.60;99.90
13375;DHT22;6756;51.354;15.754;2022-11-20T10:48:55;1.50;99.90
13375;DHT22;6756;51.354;15.754;2022-11-20T10:53:31;1.50;99.90
13375;DHT22;6756;51.354;15.754;2022-11-20T11:02:22;1.70;99.90
13375;DHT22;6756;51.354;15.754;2022-11-20T11:06:42;1.80;96.00
13375;DHT22;6756;51.354;15.754;2022-11-20T11:15:24;1.90;91.70
13375;DHT22;6756;51.354;15.754;2022-11-20T11:19:28;2.00;86.20
13375;DHT22;6756;51.354;15.754;2022-11-20T11:27:48;2.10;94.70
13375;DHT22;6756;51.354;15.754;2022-11-20T11:31:49;2.10;93.30
13375;DHT22;6756;51.354;15.754;2022-11-20T11:36:17;2.10;90.20
13375;DHT22;6756;51.354;15.754;2022-11-20T11:40:23;2.10;84.10
13375;DHT22;6756;51.354;15.754;2022-11-20T11:44:33;2.20;86.70
13375;DHT22;6756;51.354;15.754;2022-11-20T11:49:16;2.20;63.60
13375;DHT22;6756;51.354;15.754;2022-11-20T11:53:23;2.30;67.20
13375;DHT22;6756;51.354;15.754;2022-11-20T12:01:33;2.30;63.90
13375;DHT22;6756;51.354;15.754;2022-11-20T12:05:51;2.30;63.50
13375;DHT22;6756;51.354;15.754;2022-11-20T12:09:56;2.40;60.40
13375;DHT22;6756;51.354;15.754;2022-11-20T12:18:41;2.50;49.00
13375;DHT22;6756;51.354;15.754;2022-11-20T12:35:44;2.90;75.50
13375;DHT22;6756;51.354;15.754;2022-11-20T12:39:50;3.00;57.70
13375;DHT22;6756;51.354;15.754;2022-11-20T12:48:50;2.90;87.70
13375;DHT22;6756;51.354;15.754;2022-11-20T12:57:54;2.50;95.70
13375;DHT22;6756;51.354;15.754;2022-11-20T13:10:33;2.00;99.90
13375;DHT22;6756;51.354;15.754;2022-11-20T13:14:42;1.90;99.90
13375;DHT22;6756;51.354;15.754;2022-11-20T13:18:45;1.80;99.90
13375;DHT22;6756;51.354;15.754;2022-11-20T13:22:48;1.60;99.90
13375;DHT22;6756;51.354;15.754;2022-11-20T13:27:18;1.40;99.90
13375;DHT22;6756;51.354;15.754;2022-11-20T13:31:32;1.30;99.90
13375;DHT22;6756;51.354;15.754;2022-11-20T13:35:37;1.20;99.90
13375;DHT22;6756;51.354;15.754;2022-11-20T13:39:38;1.20;99.90
13375;DHT22;6756;51.354;15.754;2022-11-20T13:43:41;1.10;99.90
13375;DHT22;6756;51.354;15.754;2022-11-20T13:47:48;1.00;99.90
13375;DHT22;6756;51.354;15.754;2022-11-20T13:51:53;0.90;99.90
13375;DHT22;6756;51.354;15.754;2022-11-20T13:56:03;0.90;99.90
13375;DHT22;6756;51.354;15.754;2022-11-20T14:00:24;0.90;99.90
13375;DHT22;6756;51.354;15.754;2022-11-20T14:04:36;0.80;99.90
13375;DHT22;6756;51.354;15.754;2022-11-20T14:08:45;0.70;99.90
13375;DHT22;6756;51.354;15.754;2022-11-20T14:12:46;0.70;99.90
13375;DHT22;6756;51.354;15.754;2022-11-20T14:16:49;0.60;99.90
13375;DHT22;6756;51.354;15.754;2022-11-20T14:20:50;0.50;99.90
13375;DHT22;6756;51.354;15.754;2022-11-20T14:25:26;0.50;99.90
13375;DHT22;6756;51.354;15.754;2022-11-20T14:29:35;0.40;99.90
13375;DHT22;6756;51.354;15.754;2022-11-20T14:33:37;0.20;99.90
13375;DHT22;6756;51.354;15.754;2022-11-20T14:37:39;0.10;99.90
13375;DHT22;6756;51.354;15.754;2022-11-20T14:41:53;-0.10;99.90
13375;DHT22;6756;51.354;15.754;2022-11-20T14:46:05;-0.30;99.90
13375;DHT22;6756;51.354;15.754;2022-11-20T14:50:22;-0.50;99.90
13375;DHT22;6756;51.354;15.754;2022-11-20T14:54:24;-0.60;99.90
13375;DHT22;6756;51.354;15.754;2022-11-20T14:58:32;-0.80;99.90
13375;DHT22;6756;51.354;15.754;2022-11-20T15:02:34;-1.00;99.90
13375;DHT22;6756;51.354;15.754;2022-11-20T15:06:49;-1.10;99.90
13375;DHT22;6756;51.354;15.754;2022-11-20T15:10:51;-1.30;1.00
13375;DHT22;6756;51.354;15.754;2022-11-20T15:14:53;-1.40;1.00
13375;DHT22;6756;51.354;15.754;2022-11-20T15:18:54;-1.60;1.00
13375;DHT22;6756;51.354;15.754;2022-11-20T15:22:55;-1.70;1.00
13375;DHT22;6756;51.354;15.754;2022-11-20T15:26:56;-1.70;12.60
13375;DHT22;6756;51.354;15.754;2022-11-20T15:30:57;-1.80;33.10
13375;DHT22;6756;51.354;15.754;2022-11-20T15:34:58;-1.80;95.50
13375;DHT22;6756;51.354;15.754;2022-11-20T15:38:59;-1.90;99.90
13375;DHT22;6756;51.354;15.754;2022-11-20T15:43:00;-2.00;99.90
13375;DHT22;6756;51.354;15.754;2022-11-20T15:47:03;-2.10;99.90
13375;DHT22;6756;51.354;15.754;2022-11-20T15:51:16;-2.20;99.90
13375;DHT22;6756;51.354;15.754;2022-11-20T15:55:20;-2.30;99.90
13375;DHT22;6756;51.354;15.754;2022-11-20T15:59:21;-2.30;99.90
13375;DHT22;6756;51.354;15.754;2022-11-20T16:03:22;-2.40;99.90
13375;DHT22;6756;51.354;15.754;2022-11-20T16:07:23;-2.50;99.90
13375;DHT22;6756;51.354;15.754;2022-11-20T16:11:24;-2.70;1.00
13375;DHT22;6756;51.354;15.754;2022-11-20T16:15:25;-2.80;1.00
13375;DHT22;6756;51.354;15.754;2022-11-20T16:19:45;-3.00;1.00
13375;DHT22;6756;51.354;15.754;2022-11-20T16:23:46;-3.00;1.00
13375;DHT22;6756;51.354;15.754;2022-11-20T16:27:46;-3.20;1.00
13375;DHT22;6756;51.354;15.754;2022-11-20T16:31:48;-3.30;35.10
13375;DHT22;6756;51.354;15.754;2022-11-20T16:35:48;-3.30;99.90
13375;DHT22;6756;51.354;15.754;2022-11-20T16:39:49;-3.40;99.90
13375;DHT22;6756;51.354;15.754;2022-11-20T16:43:52;-3.50;99.90
13375;DHT22;6756;51.354;15.754;2022-11-20T16:47:53;-3.50;1.00
13375;DHT22;6756;51.354;15.754;2022-11-20T16:51:54;-3.60;1.00
13375;DHT22;6756;51.354;15.754;2022-11-20T16:55:55;-3.60;99.90
13375;DHT22;6756;51.354;15.754;2022-11-20T16:59:56;-3.50;1.00
13375;DHT22;6756;51.354;15.754;2022-11-20T17:04:04;-3.50;99.90
13375;DHT22;6756;51.354;15.754;2022-11-20T17:08:05;-3.50;1.00
13375;DHT22;6756;51.354;15.754;2022-11-20T17:12:06;-3.50;90.70
13375;DHT22;6756;51.354;15.754;2022-11-20T17:16:15;-3.50;1.00
13375;DHT22;6756;51.354;15.754;2022-11-20T17:20:16;-3.40;1.00
13375;DHT22;6756;51.354;15.754;2022-11-20T17:24:17;-3.40;99.90
13375;DHT22;6756;51.354;15.754;2022-11-20T17:28:22;-3.40;99.90
13375;DHT22;6756;51.354;15.754;2022-11-20T17:32:23;-3.40;99.90
13375;DHT22;6756;51.354;15.754;2022-11-20T17:36:25;-3.40;99.90
13375;DHT22;6756;51.354;15.754;2022-11-20T17:40:27;-3.40;1.00
13375;DHT22;6756;51.354;15.754;2022-11-20T17:44:29;-3.30;1.00
13375;DHT22;6756;51.354;15.754;2022-11-20T17:49:07;-3.30;1.00
13375;DHT22;6756;51.354;15.754;2022-11-20T17:58:20;-3.30;54.80
13375;DHT22;6756;51.354;15.754;2022-11-20T18:08:07;-3.30;99.90
13375;DHT22;6756;51.354;15.754;2022-11-20T18:16:58;-3.30;99.90
13375;DHT22;6756;51.354;15.754;2022-11-20T18:20:59;-3.30;99.90
13375;DHT22;6756;51.354;15.754;2022-11-20T18:25:15;-3.40;99.90
13375;DHT22;6756;51.354;15.754;2022-11-20T18:29:19;-3.40;99.90
13375;DHT22;6756;51.354;15.754;2022-11-20T18:33:20;-3.40;99.90
13375;DHT22;6756;51.354;15.754;2022-11-20T18:37:21;-3.40;99.90
13375;DHT22;6756;51.354;15.754;2022-11-20T18:41:57;-3.40;99.90
13375;DHT22;6756;51.354;15.754;2022-11-20T18:46:57;-3.40;99.90
13375;DHT22;6756;51.354;15.754;2022-11-20T18:56:15;-3.40;99.90
13375;DHT22;6756;51.354;15.754;2022-11-20T19:05:43;-3.40;99.90
13375;DHT22;6756;51.354;15.754;2022-11-20T19:10:05;-3.20;99.90
13375;DHT22;6756;51.354;15.754;2022-11-20T19:14:31;-3.10;99.90
13375;DHT22;6756;51.354;15.754;2022-11-20T19:18:32;-2.80;99.90
13375;DHT22;6756;51.354;15.754;2022-11-20T19:22:33;-2.60;99.90
13375;DHT22;6756;51.354;15.754;2022-11-20T19:26:35;-2.50;99.90
13375;DHT22;6756;51.354;15.754;2022-11-20T19:30:36;-2.40;99.90
13375;DHT22;6756;51.354;15.754;2022-11-20T19:34:36;-2.40;99.90
13375;DHT22;6756;51.354;15.754;2022-11-20T19:38:38;-2.30;99.90
13375;DHT22;6756;51.354;15.754;2022-11-20T19:42:40;-2.30;99.90
13375;DHT22;6756;51.354;15.754;2022-11-20T19:46:41;-2.20;99.90
13375;DHT22;6756;51.354;15.754;2022-11-20T19:50:46;-2.20;99.90
13375;DHT22;6756;51.354;15.754;2022-11-20T19:54:47;-2.10;99.90
13375;DHT22;6756;51.354;15.754;2022-11-20T19:58:48;-2.10;99.90
13375;DHT22;6756;51.354;15.754;2022-11-20T20:02:49;-2.10;99.90
13375;DHT22;6756;51.354;15.754;2022-11-20T20:06:50;-2.10;1.00
13375;DHT22;6756;51.354;15.754;2022-11-20T20:10:50;-2.20;99.90
13375;DHT22;6756;51.354;15.754;2022-11-20T20:14:51;-2.30;85.90
13375;DHT22;6756;51.354;15.754;2022-11-20T20:19:00;-2.40;1.00
13375;DHT22;6756;51.354;15.754;2022-11-20T20:23:01;-2.60;99.90
13375;DHT22;6756;51.354;15.754;2022-11-20T20:27:04;-2.80;99.90
13375;DHT22;6756;51.354;15.754;2022-11-20T20:31:10;-3.00;99.90
13375;DHT22;6756;51.354;15.754;2022-11-20T20:35:11;-3.10;99.90
13375;DHT22;6756;51.354;15.754;2022-11-20T20:39:13;-3.20;1.00
13375;DHT22;6756;51.354;15.754;2022-11-20T20:43:15;-3.30;99.90
13375;DHT22;6756;51.354;15.754;2022-11-20T20:47:16;-3.40;99.90
13375;DHT22;6756;51.354;15.754;2022-11-20T20:51:16;-3.50;1.00
13375;DHT22;6756;51.354;15.754;2022-11-20T20:55:17;-3.50;1.00
13375;DHT22;6756;51.354;15.754;2022-11-20T20:59:18;-3.60;29.90
13375;DHT22;6756;51.354;15.754;2022-11-20T21:03:20;-3.70;99.90
13375;DHT22;6756;51.354;15.754;2022-11-20T21:07:21;-3.80;99.90
13375;DHT22;6756;51.354;15.754;2022-11-20T21:11:22;-3.80;99.90
13375;DHT22;6756;51.354;15.754;2022-11-20T21:15:23;-4.00;99.90
13375;DHT22;6756;51.354;15.754;2022-11-20T21:19:24;-4.10;99.90
13375;DHT22;6756;51.354;15.754;2022-11-20T21:23:24;-4.10;99.90
13375;DHT22;6756;51.354;15.754;2022-11-20T21:27:26;-4.20;99.90
13375;DHT22;6756;51.354;15.754;2022-11-20T21:31:26;-4.20;99.90
13375;DHT22;6756;51.354;15.754;2022-11-20T21:35:29;-4.30;99.90
13375;DHT22;6756;51.354;15.754;2022-11-20T21:39:32;-4.40;99.90
13375;DHT22;6756;51.354;15.754;2022-11-20T21:43:34;-4.40;99.90
13375;DHT22;6756;51.354;15.754;2022-11-20T21:47:35;-4.40;99.90
13375;DHT22;6756;51.354;15.754;2022-11-20T21:51:36;-4.40;99.90
13375;DHT22;6756;51.354;15.754;2022-11-20T21:55:37;-4.50;99.90
13375;DHT22;6756;51.354;15.754;2022-11-20T21:59:38;-4.50;99.90
13375;DHT22;6756;51.354;15.754;2022-11-20T22:03:39;-4.50;99.90
13375;DHT22;6756;51.354;15.754;2022-11-20T22:07:44;-4.60;99.90
13375;DHT22;6756;51.354;15.754;2022-11-20T22:11:45;-4.80;99.90
13375;DHT22;6756;51.354;15.754;2022-11-20T22:15:46;-4.90;99.90
13375;DHT22;6756;51.354;15.754;2022-11-20T22:19:46;-5.00;99.90
13375;DHT22;6756;51.354;15.754;2022-11-20T22:23:48;-5.10;99.90
13375;DHT22;6756;51.354;15.754;2022-11-20T22:27:49;-5.10;99.90
13375;DHT22;6756;51.354;15.754;2022-11-20T22:31:51;-5.10;99.90
13375;DHT22;6756;51.354;15.754;2022-11-20T22:36:06;-5.20;99.90
13375;DHT22;6756;51.354;15.754;2022-11-20T22:40:09;-5.20;99.90
13375;DHT22;6756;51.354;15.754;2022-11-20T22:44:13;-5.20;99.90
13375;DHT22;6756;51.354;15.754;2022-11-20T22:48:15;-5.20;99.90
13375;DHT22;6756;51.354;15.754;2022-11-20T22:52:16;-5.30;99.90
13375;DHT22;6756;51.354;15.754;2022-11-20T22:56:18;-5.40;99.90
13375;DHT22;6756;51.354;15.754;2022-11-20T23:00:19;-5.50;99.90
13375;DHT22;6756;51.354;15.754;2022-11-20T23:04:23;-5.60;99.90
13375;DHT22;6756;51.354;15.754;2022-11-20T23:08:24;-5.60;99.90
13375;DHT22;6756;51.354;15.754;2022-11-20T23:12:25;-5.70;99.90
13375;DHT22;6756;51.354;15.754;2022-11-20T23:16:28;-5.70;99.90
13375;DHT22;6756;51.354;15.754;2022-11-20T23:20:29;-5.60;99.90
13375;DHT22;6756;51.354;15.754;2022-11-20T23:24:30;-5.60;99.90
13375;DHT22;6756;51.354;15.754;2022-11-20T23:28:31;-5.50;99.90
13375;DHT22;6756;51.354;15.754;2022-11-20T23:32:32;-5.50;99.90
13375;DHT22;6756;51.354;15.754;2022-11-20T23:36:33;-5.60;99.90
13375;DHT22;6756;51.354;15.754;2022-11-20T23:40:34;-5.70;99.90
13375;DHT22;6756;51.354;15.754;2022-11-20T23:44:35;-5.80;99.90
13375;DHT22;6756;51.354;15.754;2022-11-20T23:48:37;-5.80;99.90
13375;DHT22;6756;51.354;15.754;2022-11-20T23:52:38;-5.90;99.90
13375;DHT22;6756;51.354;15.754;2022-11-20T23:56:39;-5.90;99.90
